createdAt,value
2018-11-28T00:02:19.463Z,10.93
2018-11-28T00:04:47.129Z,8.90
2018-11-28T00:07:14.656Z,8.93
2018-11-28T00:09:42.269Z,8.33
2018-11-28T00:12:09.788Z,8.37
2018-11-28T00:14:37.404Z,9.07
2018-11-28T00:17:05.123Z,9.67
2018-11-28T00:19:32.737Z,8.67
2018-11-28T00:22:00.256Z,9.17
2018-11-28T00:24:27.856Z,9.20
2018-11-28T00:26:55.476Z,9.70
2018-11-28T00:29:23.089Z,9.63
2018-11-28T00:31:50.693Z,9.47
2018-11-28T00:34:18.224Z,8.80
2018-11-28T00:36:45.858Z,9.53
2018-11-28T00:39:13.507Z,8.80
2018-11-28T00:41:41.130Z,9.07
2018-11-28T00:44:08.652Z,8.87
2018-11-28T00:46:36.240Z,10.13
2018-11-28T00:49:04.624Z,6.87
2018-11-28T00:51:32.258Z,8.67
2018-11-28T00:53:59.868Z,8.57
2018-11-28T00:56:27.461Z,8.77
2018-11-28T00:58:55.069Z,8.43
2018-11-28T01:01:22.689Z,7.77
2018-11-28T01:03:50.208Z,7.73
2018-11-28T01:06:17.809Z,7.40
2018-11-28T01:08:45.430Z,7.57
2018-11-28T01:11:13.060Z,8.43
2018-11-28T01:13:40.652Z,9.03
2018-11-28T01:16:08.264Z,7.93
2018-11-28T01:18:35.779Z,10.07
2018-11-28T01:21:03.434Z,8.33
2018-11-28T01:23:30.936Z,8.70
2018-11-28T01:25:58.520Z,7.73
2018-11-28T01:28:26.132Z,9.70
2018-11-28T01:30:53.675Z,11.27
2018-11-28T01:33:21.306Z,8.23
2018-11-28T01:35:48.811Z,7.60
2018-11-28T01:38:16.333Z,5.83
2018-11-28T01:40:43.959Z,6.47
2018-11-28T01:43:11.573Z,6.83
2018-11-28T01:45:39.200Z,8.13
2018-11-28T01:48:06.726Z,7.13
2018-11-28T01:50:34.370Z,7.57
2018-11-28T01:53:01.889Z,7.07
2018-11-28T01:55:29.500Z,6.70
2018-11-28T01:57:57.011Z,10.03
2018-11-28T02:00:25.368Z,8.40
2018-11-28T02:02:55.085Z,7.43
2018-11-28T02:05:22.696Z,7.23
2018-11-28T02:07:50.445Z,6.93
2018-11-28T02:10:18.052Z,8.23
2018-11-28T02:12:45.656Z,7.80
2018-11-28T02:15:13.680Z,7.60
2018-11-28T02:17:41.252Z,8.60
2018-11-28T02:20:10.621Z,6.83
2018-11-28T02:22:38.285Z,7.90
2018-11-28T02:25:06.338Z,7.50
2018-11-28T02:27:33.941Z,7.73
2018-11-28T02:30:01.468Z,7.50
2018-11-28T02:32:28.980Z,6.53
2018-11-28T02:34:56.509Z,6.73
2018-11-28T02:37:24.052Z,6.37
2018-11-28T02:39:51.569Z,7.00
2018-11-28T02:42:19.088Z,7.03
2018-11-28T02:44:46.734Z,8.00
2018-11-28T02:47:14.253Z,7.00
2018-11-28T02:49:41.783Z,7.00
2018-11-28T02:52:09.403Z,6.97
2018-11-28T02:54:36.908Z,7.73
2018-11-28T02:57:04.455Z,7.33
2018-11-28T02:59:31.992Z,7.87
2018-11-28T03:01:59.678Z,7.37
2018-11-28T03:04:27.306Z,7.77
2018-11-28T03:06:54.824Z,7.00
2018-11-28T03:09:22.376Z,6.80
2018-11-28T03:11:49.888Z,6.67
2018-11-28T03:14:17.408Z,7.10
2018-11-28T03:16:44.911Z,7.00
2018-11-28T03:19:12.468Z,8.63
2018-11-28T03:21:39.989Z,7.00
2018-11-28T03:24:07.549Z,7.87
2018-11-28T03:26:35.069Z,7.70
2018-11-28T03:29:02.773Z,6.83
2018-11-28T03:31:30.309Z,6.33
2018-11-28T03:33:57.837Z,6.80
2018-11-28T03:36:25.358Z,6.90
2018-11-28T03:38:52.884Z,7.93
2018-11-28T03:41:20.553Z,8.17
2018-11-28T03:43:48.052Z,8.43
2018-11-28T03:46:15.687Z,8.83
2018-11-28T03:48:43.205Z,8.87
2018-11-28T03:51:10.712Z,8.20
2018-11-28T03:53:38.299Z,7.03
2018-11-28T03:56:05.800Z,6.03
2018-11-28T03:58:33.433Z,7.77
2018-11-28T04:01:01.021Z,7.30
2018-11-28T04:03:28.622Z,7.57
2018-11-28T04:05:56.196Z,8.50
2018-11-28T04:08:23.717Z,8.97
2018-11-28T04:10:51.229Z,7.57
2018-11-28T04:13:18.749Z,7.80
2018-11-28T04:15:46.272Z,9.47
2018-11-28T04:18:13.813Z,6.80
2018-11-28T04:20:41.400Z,7.20
2018-11-28T04:23:08.937Z,7.30
2018-11-28T04:25:36.521Z,7.33
2018-11-28T04:28:04.032Z,8.93
2018-11-28T04:30:31.532Z,7.77
2018-11-28T04:32:59.045Z,8.37
2018-11-28T04:35:26.603Z,7.80
2018-11-28T04:37:54.124Z,7.93
2018-11-28T04:40:21.642Z,6.43
2018-11-28T04:42:49.272Z,7.13
2018-11-28T04:45:18.706Z,7.40
2018-11-28T04:47:46.287Z,7.03
2018-11-28T04:50:13.836Z,7.13
2018-11-28T04:52:41.362Z,7.23
2018-11-28T04:55:09.590Z,7.63
2018-11-28T04:57:37.232Z,7.93
2018-11-28T05:00:16.337Z,6.83
2018-11-28T05:02:43.855Z,8.37
2018-11-28T05:05:11.401Z,7.17
2018-11-28T05:07:39.241Z,7.60
2018-11-28T05:10:09.080Z,8.27
2018-11-28T05:12:36.614Z,8.10
2018-11-28T05:15:04.748Z,7.63
2018-11-28T05:17:32.412Z,8.37
2018-11-28T05:19:59.924Z,9.87
2018-11-28T05:22:27.431Z,6.87
2018-11-28T05:24:55.288Z,7.27
2018-11-28T05:27:23.000Z,8.03
2018-11-28T05:29:50.516Z,8.50
2018-11-28T05:32:18.024Z,8.40
2018-11-28T05:34:45.548Z,7.27
2018-11-28T05:37:13.111Z,9.27
2018-11-28T05:39:40.630Z,8.20
2018-11-28T05:42:08.184Z,7.37
2018-11-28T05:44:35.703Z,8.30
2018-11-28T05:47:03.205Z,8.30
2018-11-28T05:49:30.728Z,8.53
2018-11-28T05:51:58.265Z,8.23
2018-11-28T05:54:25.801Z,9.20
2018-11-28T05:56:53.379Z,7.37
2018-11-28T05:59:20.904Z,9.23
2018-11-28T06:01:48.609Z,9.27
2018-11-28T06:04:16.139Z,8.30
2018-11-28T06:06:43.661Z,8.00
2018-11-28T06:09:11.192Z,6.47
2018-11-28T06:11:38.727Z,6.83
2018-11-28T06:14:06.664Z,7.90
2018-11-28T06:16:34.408Z,6.70
2018-11-28T06:19:01.948Z,7.27
2018-11-28T06:21:29.488Z,10.47
2018-11-28T06:23:57.011Z,9.80
2018-11-28T06:26:24.539Z,8.90
2018-11-28T06:28:52.116Z,9.40
2018-11-28T06:31:19.624Z,8.30
2018-11-28T06:33:47.159Z,9.93
2018-11-28T06:36:14.756Z,13.75
2018-11-28T06:38:42.267Z,12.07
2018-11-28T06:41:09.791Z,9.63
2018-11-28T06:43:37.303Z,7.37
2018-11-28T06:46:05.036Z,13.43
2018-11-28T06:48:32.556Z,13.40
2018-11-28T06:51:00.056Z,9.77
2018-11-28T06:53:27.560Z,7.83
2018-11-28T06:55:55.155Z,8.60
2018-11-28T06:58:22.685Z,8.57
2018-11-28T07:00:50.492Z,8.63
2018-11-28T07:03:18.012Z,8.47
2018-11-28T07:05:45.647Z,8.17
2018-11-28T07:08:17.069Z,8.17
2018-11-28T07:10:45.175Z,7.07
2018-11-28T07:13:12.692Z,9.93
2018-11-28T07:15:40.338Z,8.50
2018-11-28T07:18:13.329Z,10.05
2018-11-28T07:20:40.839Z,9.53
2018-11-28T07:23:08.369Z,9.53
2018-11-28T07:25:35.896Z,11.77
2018-11-28T07:28:03.540Z,14.20
2018-11-28T07:30:31.058Z,9.07
2018-11-28T07:32:58.588Z,11.43
2018-11-28T07:35:26.092Z,10.90
2018-11-28T07:37:53.620Z,13.20
2018-11-28T07:40:22.542Z,10.20
2018-11-28T07:43:08.225Z,9.63
2018-11-28T07:45:36.082Z,7.70
2018-11-28T07:48:05.954Z,7.77
2018-11-28T07:50:33.509Z,8.03
2018-11-28T07:53:01.095Z,8.63
2018-11-28T07:55:28.601Z,11.95
2018-11-28T07:57:56.125Z,12.60
2018-11-28T08:00:23.810Z,8.93
2018-11-28T08:02:51.340Z,8.43
2018-11-28T08:05:18.848Z,8.97
2018-11-28T08:07:46.363Z,7.27
2018-11-28T08:10:21.111Z,9.75
2018-11-28T08:12:49.146Z,8.33
2018-11-28T08:15:16.689Z,7.43
2018-11-28T08:17:44.229Z,8.13
2018-11-28T08:20:11.767Z,6.30
2018-11-28T08:22:39.293Z,6.40
2018-11-28T08:25:07.721Z,6.63
2018-11-28T08:27:35.096Z,6.57
2018-11-28T08:30:02.668Z,7.17
2018-11-28T08:32:30.200Z,6.83
2018-11-28T08:34:57.754Z,7.23
2018-11-28T08:37:25.376Z,7.70
2018-11-28T08:39:52.918Z,6.43
2018-11-28T08:42:20.443Z,7.80
2018-11-28T08:44:47.989Z,8.37
2018-11-28T08:47:15.524Z,8.57
2018-11-28T08:49:43.085Z,7.80
2018-11-28T08:52:10.613Z,6.73
2018-11-28T08:54:38.145Z,7.90
2018-11-28T08:57:05.696Z,8.47
2018-11-28T08:59:33.203Z,7.50
2018-11-28T09:02:00.754Z,8.97
2018-11-28T09:04:28.263Z,10.53
2018-11-28T09:06:55.913Z,8.43
2018-11-28T09:09:23.424Z,7.80
2018-11-28T09:11:50.910Z,8.30
2018-11-28T09:14:18.427Z,7.07
2018-11-28T09:16:45.927Z,8.50
2018-11-28T09:19:13.459Z,7.20
2018-11-28T09:21:41.000Z,6.70
2018-11-28T09:24:08.524Z,6.97
2018-11-28T09:26:36.151Z,7.47
2018-11-28T09:29:03.862Z,8.70
2018-11-28T09:31:31.781Z,7.70
2018-11-28T09:33:59.060Z,7.93
2018-11-28T09:36:26.603Z,7.90
2018-11-28T09:38:54.331Z,8.33
2018-11-28T09:41:21.890Z,8.03
2018-11-28T09:43:49.406Z,9.17
2018-11-28T09:46:16.940Z,8.43
2018-11-28T09:48:44.687Z,8.40
2018-11-28T09:51:12.453Z,8.27
2018-11-28T09:53:39.973Z,9.27
2018-11-28T09:56:07.491Z,9.57
2018-11-28T09:58:35.000Z,10.47
2018-11-28T10:01:03.370Z,10.10
2018-11-28T10:03:30.885Z,10.43
2018-11-28T10:05:58.494Z,10.77
2018-11-28T10:08:26.027Z,9.00
2018-11-28T10:10:53.549Z,10.67
2018-11-28T10:13:21.075Z,9.43
2018-11-28T10:15:48.581Z,10.53
2018-11-28T10:18:16.085Z,12.00
2018-11-28T10:20:43.724Z,11.53
2018-11-28T10:23:11.317Z,10.90
2018-11-28T10:25:39.016Z,8.73
2018-11-28T10:28:07.469Z,9.47
2018-11-28T10:30:35.440Z,11.30
2018-11-28T10:33:03.724Z,8.17
2018-11-28T10:35:31.236Z,10.30
2018-11-28T10:37:58.764Z,10.60
2018-11-28T10:40:26.287Z,11.07
2018-11-28T10:42:54.356Z,10.63
2018-11-28T10:45:23.263Z,11.90
2018-11-28T10:47:50.885Z,11.73
2018-11-28T10:50:18.564Z,13.77
2018-11-28T10:52:46.098Z,12.57
2018-11-28T10:55:14.816Z,12.07
2018-11-28T10:57:42.409Z,10.17
2018-11-28T11:00:19.924Z,10.33
2018-11-28T11:02:53.175Z,12.33
2018-11-28T11:05:26.277Z,12.50
2018-11-28T11:07:59.379Z,11.20
2018-11-28T11:10:32.388Z,9.50
2018-11-28T11:13:05.647Z,11.23
2018-11-28T11:15:33.195Z,11.40
2018-11-28T11:18:02.207Z,13.23
2018-11-28T11:20:28.463Z,11.00
2018-11-28T11:22:56.001Z,10.53
2018-11-28T11:25:23.537Z,11.57
2018-11-28T11:27:51.121Z,10.47
2018-11-28T11:30:18.652Z,9.80
2018-11-28T11:32:46.389Z,10.70
2018-11-28T11:35:13.891Z,17.03
2018-11-28T11:37:41.496Z,11.80
2018-11-28T11:40:10.120Z,10.87
2018-11-28T11:42:38.154Z,9.30
2018-11-28T11:45:07.300Z,10.47
2018-11-28T11:47:34.820Z,8.87
2018-11-28T11:50:02.395Z,9.77
2018-11-28T11:52:30.078Z,9.00
2018-11-28T11:54:57.623Z,8.93
2018-11-28T11:57:25.152Z,8.10
2018-11-28T11:59:52.672Z,9.83
2018-11-28T12:02:20.280Z,9.10
2018-11-28T12:04:47.934Z,9.47
2018-11-28T12:07:15.458Z,9.13
2018-11-28T12:09:43.020Z,8.10
2018-11-28T12:12:10.560Z,8.17
2018-11-28T12:14:38.092Z,8.37
2018-11-28T12:17:06.107Z,8.83
2018-11-28T12:19:33.268Z,10.00
2018-11-28T12:22:00.852Z,9.00
2018-11-28T12:24:29.111Z,8.00
2018-11-28T12:26:55.943Z,9.13
2018-11-28T12:29:23.461Z,7.47
2018-11-28T12:31:50.996Z,8.07
2018-11-28T12:34:18.508Z,7.23
2018-11-28T12:36:46.004Z,7.93
2018-11-28T12:39:13.508Z,7.67
2018-11-28T12:41:41.096Z,8.30
2018-11-28T12:44:08.625Z,7.63
2018-11-28T12:46:36.154Z,8.60
2018-11-28T12:49:03.710Z,8.73
2018-11-28T12:51:31.261Z,8.60
2018-11-28T12:53:58.816Z,7.53
2018-11-28T12:56:26.388Z,6.87
2018-11-28T12:58:53.923Z,8.63
2018-11-28T13:01:21.468Z,7.67
2018-11-28T13:03:48.980Z,8.30
2018-11-28T13:06:16.464Z,7.00
2018-11-28T13:08:44.098Z,7.43
2018-11-28T13:11:11.622Z,8.17
2018-11-28T13:13:39.124Z,7.47
2018-11-28T13:16:06.665Z,6.87
2018-11-28T13:18:34.223Z,7.90
2018-11-28T13:21:01.724Z,7.23
2018-11-28T13:23:29.230Z,7.63
2018-11-28T13:25:56.744Z,7.13
2018-11-28T13:28:24.320Z,8.43
2018-11-28T13:30:52.249Z,7.73
2018-11-28T13:33:19.764Z,8.13
2018-11-28T13:35:47.295Z,7.13
2018-11-28T13:38:14.844Z,8.00
2018-11-28T13:40:43.168Z,7.50
2018-11-28T13:43:10.997Z,6.57
2018-11-28T13:45:39.200Z,7.57
2018-11-28T13:48:06.730Z,7.67
2018-11-28T13:50:34.256Z,7.40
2018-11-28T13:53:03.128Z,6.63
2018-11-28T13:55:39.588Z,7.73
2018-11-28T13:57:58.939Z,7.43
2018-11-28T14:00:26.468Z,7.47
2018-11-28T14:02:54.000Z,10.80
2018-11-28T14:05:21.534Z,9.50
2018-11-28T14:07:49.144Z,9.77
2018-11-28T14:10:16.809Z,7.63
2018-11-28T14:12:44.340Z,7.60
2018-11-28T14:15:12.626Z,8.07
2018-11-28T14:17:40.174Z,7.70
2018-11-28T14:20:08.388Z,9.00
2018-11-28T14:22:36.036Z,8.27
2018-11-28T14:25:03.629Z,5.97
2018-11-28T14:27:31.180Z,7.80
2018-11-28T14:29:58.680Z,7.60
2018-11-28T14:32:26.206Z,6.50
2018-11-28T14:34:53.772Z,6.27
2018-11-28T14:37:21.401Z,6.83
2018-11-28T14:39:48.947Z,7.53
2018-11-28T14:42:16.521Z,8.33
2018-11-28T14:44:44.175Z,7.63
2018-11-28T14:47:11.680Z,7.67
2018-11-28T14:49:39.308Z,6.90
2018-11-28T14:52:07.104Z,5.83
2018-11-28T14:54:34.611Z,7.43
2018-11-28T14:57:02.217Z,8.27
2018-11-28T14:59:29.796Z,8.17
2018-11-28T15:01:57.446Z,6.43
2018-11-28T15:04:24.971Z,6.73
2018-11-28T15:06:55.579Z,8.13
2018-11-28T15:09:29.472Z,6.83
2018-11-28T15:11:56.995Z,7.63
2018-11-28T15:14:24.525Z,6.67
2018-11-28T15:16:52.818Z,5.87
2018-11-28T15:19:19.724Z,6.70
2018-11-28T15:21:47.557Z,7.83
2018-11-28T15:24:15.058Z,5.90
2018-11-28T15:26:42.660Z,6.97
2018-11-28T15:29:10.164Z,7.07
2018-11-28T15:31:37.685Z,5.87
2018-11-28T15:34:05.636Z,5.97
2018-11-28T15:36:33.165Z,8.17
2018-11-28T15:39:00.676Z,7.10
2018-11-28T15:41:28.193Z,7.37
2018-11-28T15:43:55.739Z,6.60
2018-11-28T15:46:23.259Z,7.53
2018-11-28T15:48:50.764Z,7.00
2018-11-28T15:51:18.340Z,7.63
2018-11-28T15:53:45.869Z,7.93
2018-11-28T15:56:13.546Z,8.30
2018-11-28T15:58:41.055Z,7.23
2018-11-28T16:01:08.620Z,6.17
2018-11-28T16:03:36.144Z,7.33
2018-11-28T16:06:03.776Z,7.27
2018-11-28T16:08:31.316Z,7.40
2018-11-28T16:10:58.847Z,6.73
2018-11-28T16:13:26.359Z,7.03
2018-11-28T16:15:54.423Z,6.43
2018-11-28T16:18:22.154Z,9.30
2018-11-28T16:20:49.664Z,6.27
2018-11-28T16:23:17.256Z,7.10
2018-11-28T16:25:44.831Z,7.20
2018-11-28T16:28:12.617Z,7.33
2018-11-28T16:30:39.941Z,7.40
2018-11-28T16:33:07.565Z,7.47
2018-11-28T16:35:35.562Z,7.53
2018-11-28T16:38:03.101Z,7.27
2018-11-28T16:40:30.646Z,7.07
2018-11-28T16:42:58.174Z,7.10
2018-11-28T16:45:25.704Z,6.70
2018-11-28T16:47:53.214Z,6.87
2018-11-28T16:50:20.731Z,6.30
2018-11-28T16:52:48.272Z,7.93
2018-11-28T16:55:16.242Z,6.47
2018-11-28T16:57:44.441Z,6.43
2018-11-28T17:00:12.573Z,7.27
2018-11-28T17:02:54.149Z,7.33
2018-11-28T17:05:21.975Z,7.47
2018-11-28T17:07:49.724Z,7.40
2018-11-28T17:10:18.920Z,6.63
2018-11-28T17:12:47.083Z,6.07
2018-11-28T17:15:15.195Z,8.00
2018-11-28T17:17:43.062Z,6.10
2018-11-28T17:20:11.403Z,8.57
2018-11-28T17:22:38.935Z,7.47
2018-11-28T17:25:07.828Z,6.77
2018-11-28T17:27:35.518Z,6.97
2018-11-28T17:30:03.384Z,9.67
2018-11-28T17:32:30.939Z,8.27
2018-11-28T17:34:58.527Z,6.20
2018-11-28T17:37:26.687Z,6.37
2018-11-28T17:39:54.244Z,8.30
2018-11-28T17:42:21.908Z,6.13
2018-11-28T17:44:49.519Z,6.30
2018-11-28T17:47:17.965Z,8.20
2018-11-28T17:49:45.560Z,7.03
2018-11-28T17:52:13.188Z,7.80
2018-11-28T17:54:40.824Z,8.63
2018-11-28T17:57:08.383Z,7.63
2018-11-28T17:59:35.976Z,6.53
2018-11-28T18:02:03.505Z,6.97
2018-11-28T18:04:31.156Z,6.83
2018-11-28T18:06:58.732Z,6.33
2018-11-28T18:09:26.421Z,7.80
2018-11-28T18:11:53.977Z,9.80
2018-11-28T18:14:21.486Z,8.00
2018-11-28T18:16:49.471Z,9.00
2018-11-28T18:19:17.104Z,6.53
2018-11-28T18:21:44.620Z,7.47
2018-11-28T18:24:12.167Z,6.70
2018-11-28T18:26:39.692Z,6.60
2018-11-28T18:29:07.256Z,6.83
2018-11-28T18:31:34.886Z,6.70
2018-11-28T18:34:02.418Z,6.57
2018-11-28T18:36:29.961Z,8.70
2018-11-28T18:38:57.559Z,6.63
2018-11-28T18:41:25.212Z,8.20
2018-11-28T18:43:52.762Z,8.10
2018-11-28T18:46:20.280Z,6.50
2018-11-28T18:48:47.914Z,7.67
2018-11-28T18:51:15.451Z,6.63
2018-11-28T18:53:43.033Z,6.17
2018-11-28T18:56:10.594Z,6.30
2018-11-28T18:58:38.240Z,8.20
2018-11-28T19:01:05.797Z,10.10
2018-11-28T19:03:33.329Z,8.10
2018-11-28T19:06:01.012Z,7.37
2018-11-28T19:08:28.524Z,7.83
2018-11-28T19:10:56.362Z,8.17
2018-11-28T19:13:23.980Z,8.20
2018-11-28T19:15:51.526Z,8.93
2018-11-28T19:18:19.099Z,7.73
2018-11-28T19:20:46.609Z,8.77
2018-11-28T19:23:14.176Z,10.50
2018-11-28T19:25:41.713Z,8.77
2018-11-28T19:28:09.247Z,9.27
2018-11-28T19:30:37.385Z,6.97
2018-11-28T19:33:06.565Z,7.67
2018-11-28T19:35:34.140Z,7.37
2018-11-28T19:38:01.708Z,7.80
2018-11-28T19:40:37.096Z,8.33
2018-11-28T19:43:04.732Z,7.50
2018-11-28T19:45:32.349Z,10.83
2018-11-28T19:48:00.030Z,9.77
2018-11-28T19:50:28.372Z,7.43
2018-11-28T19:52:55.968Z,8.50
2018-11-28T19:55:23.561Z,7.53
2018-11-28T19:57:51.051Z,7.27
2018-11-28T20:00:18.741Z,7.77
2018-11-28T20:02:46.390Z,6.97
2018-11-28T20:05:14.096Z,9.17
2018-11-28T20:07:42.256Z,7.50
2018-11-28T20:10:11.097Z,6.30
2018-11-28T20:12:38.612Z,7.90
2018-11-28T20:15:08.064Z,7.53
2018-11-28T20:17:35.584Z,8.53
2018-11-28T20:20:03.113Z,10.10
2018-11-28T20:22:30.644Z,9.30
2018-11-28T20:24:58.168Z,7.73
2018-11-28T20:27:25.727Z,6.90
2018-11-28T20:29:53.256Z,6.53
2018-11-28T20:32:20.869Z,7.33
2018-11-28T20:34:48.383Z,8.53
2018-11-28T20:37:15.881Z,9.20
2018-11-28T20:39:43.404Z,8.03
2018-11-28T20:42:11.004Z,7.97
2018-11-28T20:44:38.584Z,8.80
2018-11-28T20:47:06.217Z,6.67
2018-11-28T20:49:33.750Z,9.70
2018-11-28T20:52:01.256Z,7.63
2018-11-28T20:54:28.879Z,7.93
2018-11-28T20:56:56.372Z,7.27
2018-11-28T20:59:23.880Z,7.43
2018-11-28T21:01:51.491Z,6.90
2018-11-28T21:04:19.004Z,6.77
2018-11-28T21:06:46.512Z,6.70
2018-11-28T21:09:14.409Z,8.20
2018-11-28T21:11:42.040Z,6.77
2018-11-28T21:14:09.556Z,7.17
2018-11-28T21:16:37.108Z,6.90
2018-11-28T21:19:04.667Z,6.37
2018-11-28T21:21:32.180Z,6.30
2018-11-28T21:23:59.701Z,7.90
2018-11-28T21:26:27.184Z,8.20
2018-11-28T21:28:54.724Z,7.33
2018-11-28T21:31:22.224Z,6.20
2018-11-28T21:33:49.723Z,6.10
2018-11-28T21:36:17.241Z,7.30
2018-11-28T21:41:30.800Z,6.10
2018-11-28T21:43:58.712Z,16.03
2018-11-28T21:46:26.245Z,11.10
2018-11-28T21:48:54.045Z,8.33
2018-11-28T21:51:21.695Z,9.03
2018-11-28T21:53:49.620Z,7.63
2018-11-28T21:56:17.370Z,9.43
2018-11-28T21:58:44.996Z,6.43
2018-11-28T22:01:12.552Z,7.03
2018-11-28T22:03:40.108Z,7.97
2018-11-28T22:06:07.628Z,7.13
2018-11-28T22:08:35.395Z,9.85
2018-11-28T22:11:03.001Z,8.83
2018-11-28T22:13:30.597Z,7.20
2018-11-28T22:15:58.116Z,6.43
2018-11-28T22:18:25.883Z,6.70
2018-11-28T22:20:53.905Z,7.13
2018-11-28T22:23:21.482Z,7.27
2018-11-28T22:25:49.321Z,6.57
2018-11-28T22:28:20.328Z,5.70
2018-11-28T22:30:47.965Z,7.57
2018-11-28T22:33:15.503Z,6.00
2018-11-28T22:35:43.007Z,8.70
2018-11-28T22:38:10.591Z,7.20
2018-11-28T22:40:38.127Z,6.90
2018-11-28T22:43:05.633Z,6.70
2018-11-28T22:45:33.667Z,6.73
2018-11-28T22:48:01.189Z,7.37
2018-11-28T22:50:28.724Z,6.90
2018-11-28T22:52:56.263Z,5.97
2018-11-28T22:55:23.973Z,6.07
2018-11-28T22:57:51.494Z,6.60
2018-11-28T23:00:28.467Z,7.20
2018-11-28T23:02:59.412Z,6.90
2018-11-28T23:05:27.692Z,5.53
2018-11-28T23:07:58.567Z,5.60
2018-11-28T23:10:26.265Z,5.87
2018-11-28T23:12:53.844Z,5.93
2018-11-28T23:15:21.403Z,6.03
2018-11-28T23:17:48.984Z,6.07
2018-11-28T23:20:16.883Z,5.70
2018-11-28T23:22:44.375Z,6.00
2018-11-28T23:25:11.977Z,6.47
2018-11-28T23:27:39.905Z,6.23
2018-11-28T23:30:10.087Z,5.77
2018-11-28T23:32:37.656Z,6.63
2018-11-28T23:35:05.889Z,6.03
2018-11-28T23:37:33.552Z,6.33
2018-11-28T23:40:01.060Z,6.17
2018-11-28T23:42:28.717Z,6.43
2018-11-28T23:44:56.232Z,7.30
2018-11-28T23:47:24.545Z,5.60
2018-11-28T23:49:52.208Z,5.43
2018-11-28T23:52:19.820Z,5.80
2018-11-28T23:54:47.321Z,6.17
2018-11-28T23:57:15.491Z,4.90
2018-11-28T23:59:43.120Z,5.70
